sensor_id;sensor_type;location;lat;lon;timestamp;temperature;humidity
25320;DHT22;13256;49.012;8.610;2023-03-17T00:00:56;6.60;99.90
25320;DHT22;13256;49.012;8.610;2023-03-17T00:03:25;6.60;99.90
25320;DHT22;13256;49.012;8.610;2023-03-17T00:05:53;6.60;99.90
25320;DHT22;13256;49.012;8.610;2023-03-17T00:08:34;6.70;99.90
25320;DHT22;13256;49.012;8.610;2023-03-17T00:11:01;6.70;99.90
25320;DHT22;13256;49.012;8.610;2023-03-17T00:13:31;6.80;99.90
25320;DHT22;13256;49.012;8.610;2023-03-17T00:16:03;6.80;99.90
25320;DHT22;13256;49.012;8.610;2023-03-17T00:18:33;6.80;99.90
25320;DHT22;13256;49.012;8.610;2023-03-17T00:21:03;6.80;99.90
25320;DHT22;13256;49.012;8.610;2023-03-17T00:23:35;6.80;99.90
25320;DHT22;13256;49.012;8.610;2023-03-17T00:26:05;6.80;99.90
25320;DHT22;13256;49.012;8.610;2023-03-17T00:28:38;6.80;99.90
25320;DHT22;13256;49.012;8.610;2023-03-17T00:31:14;6.80;99.90
25320;DHT22;13256;49.012;8.610;2023-03-17T00:33:50;6.80;99.90
25320;DHT22;13256;49.012;8.610;2023-03-17T00:36:22;6.80;99.90
25320;DHT22;13256;49.012;8.610;2023-03-17T00:38:50;6.70;99.90
25320;DHT22;13256;49.012;8.610;2023-03-17T00:41:18;6.80;99.90
25320;DHT22;13256;49.012;8.610;2023-03-17T00:43:49;6.80;99.90
25320;DHT22;13256;49.012;8.610;2023-03-17T00:46:29;6.70;99.90
25320;DHT22;13256;49.012;8.610;2023-03-17T00:49:24;6.70;99.90
25320;DHT22;13256;49.012;8.610;2023-03-17T00:51:54;6.60;99.90
25320;DHT22;13256;49.012;8.610;2023-03-17T00:54:23;6.70;99.90
25320;DHT22;13256;49.012;8.610;2023-03-17T00:56:54;6.60;99.90
25320;DHT22;13256;49.012;8.610;2023-03-17T00:59:40;6.60;99.90
25320;DHT22;13256;49.012;8.610;2023-03-17T01:02:12;6.60;99.90
25320;DHT22;13256;49.012;8.610;2023-03-17T01:04:40;6.60;99.90
25320;DHT22;13256;49.012;8.610;2023-03-17T01:07:21;6.60;99.90
25320;DHT22;13256;49.012;8.610;2023-03-17T01:09:50;6.60;99.90
25320;DHT22;13256;49.012;8.610;2023-03-17T01:12:17;6.60;99.90
25320;DHT22;13256;49.012;8.610;2023-03-17T01:14:44;6.60;99.90
25320;DHT22;13256;49.012;8.610;2023-03-17T01:17:16;6.60;99.90
25320;DHT22;13256;49.012;8.610;2023-03-17T01:19:44;6.60;99.90
25320;DHT22;13256;49.012;8.610;2023-03-17T01:22:14;6.50;99.90
25320;DHT22;13256;49.012;8.610;2023-03-17T01:24:41;6.50;99.90
25320;DHT22;13256;49.012;8.610;2023-03-17T01:27:09;6.50;99.90
25320;DHT22;13256;49.012;8.610;2023-03-17T01:29:36;6.50;99.90
25320;DHT22;13256;49.012;8.610;2023-03-17T01:32:07;6.60;99.90
25320;DHT22;13256;49.012;8.610;2023-03-17T01:34:36;6.60;99.90
25320;DHT22;13256;49.012;8.610;2023-03-17T01:37:05;6.60;99.90
25320;DHT22;13256;49.012;8.610;2023-03-17T01:39:42;6.50;99.90
25320;DHT22;13256;49.012;8.610;2023-03-17T01:42:15;6.40;99.90
25320;DHT22;13256;49.012;8.610;2023-03-17T01:45:04;6.30;99.90
25320;DHT22;13256;49.012;8.610;2023-03-17T01:47:32;6.20;99.90
25320;DHT22;13256;49.012;8.610;2023-03-17T01:50:30;6.20;99.90
25320;DHT22;13256;49.012;8.610;2023-03-17T01:52:59;6.20;99.90
25320;DHT22;13256;49.012;8.610;2023-03-17T01:55:54;6.10;99.90
25320;DHT22;13256;49.012;8.610;2023-03-17T01:58:23;6.10;99.90
25320;DHT22;13256;49.012;8.610;2023-03-17T02:00:53;6.10;99.90
25320;DHT22;13256;49.012;8.610;2023-03-17T02:03:24;6.00;99.90
25320;DHT22;13256;49.012;8.610;2023-03-17T02:05:53;6.00;99.90
25320;DHT22;13256;49.012;8.610;2023-03-17T02:08:20;6.00;99.90
25320;DHT22;13256;49.012;8.610;2023-03-17T02:10:48;6.00;99.90
25320;DHT22;13256;49.012;8.610;2023-03-17T02:13:16;6.00;99.90
25320;DHT22;13256;49.012;8.610;2023-03-17T02:15:47;6.00;99.90
25320;DHT22;13256;49.012;8.610;2023-03-17T02:18:17;6.00;99.90
25320;DHT22;13256;49.012;8.610;2023-03-17T02:23:18;6.00;99.90
25320;DHT22;13256;49.012;8.610;2023-03-17T02:25:51;6.00;99.90
25320;DHT22;13256;49.012;8.610;2023-03-17T02:28:22;6.10;99.90
25320;DHT22;13256;49.012;8.610;2023-03-17T02:33:19;6.00;99.90
25320;DHT22;13256;49.012;8.610;2023-03-17T02:36:11;6.00;99.90
25320;DHT22;13256;49.012;8.610;2023-03-17T02:38:40;5.90;99.90
25320;DHT22;13256;49.012;8.610;2023-03-17T02:41:09;5.80;99.90
25320;DHT22;13256;49.012;8.610;2023-03-17T02:43:37;5.80;99.90
25320;DHT22;13256;49.012;8.610;2023-03-17T02:46:04;5.80;99.90
25320;DHT22;13256;49.012;8.610;2023-03-17T02:48:32;5.70;99.90
25320;DHT22;13256;49.012;8.610;2023-03-17T02:51:06;5.70;99.90
25320;DHT22;13256;49.012;8.610;2023-03-17T02:53:38;5.70;99.90
25320;DHT22;13256;49.012;8.610;2023-03-17T02:56:06;5.60;99.90
25320;DHT22;13256;49.012;8.610;2023-03-17T02:58:39;5.60;99.90
25320;DHT22;13256;49.012;8.610;2023-03-17T03:01:11;5.60;99.90
25320;DHT22;13256;49.012;8.610;2023-03-17T03:03:41;5.60;99.90
25320;DHT22;13256;49.012;8.610;2023-03-17T03:06:12;5.60;99.90
25320;DHT22;13256;49.012;8.610;2023-03-17T03:08:41;5.50;99.90
25320;DHT22;13256;49.012;8.610;2023-03-17T03:11:10;5.50;99.90
25320;DHT22;13256;49.012;8.610;2023-03-17T03:13:37;5.50;99.90
25320;DHT22;13256;49.012;8.610;2023-03-17T03:16:09;5.50;99.90
25320;DHT22;13256;49.012;8.610;2023-03-17T03:18:38;5.50;99.90
25320;DHT22;13256;49.012;8.610;2023-03-17T03:21:05;5.40;99.90
25320;DHT22;13256;49.012;8.610;2023-03-17T03:23:33;5.30;99.90
25320;DHT22;13256;49.012;8.610;2023-03-17T03:26:00;5.20;99.90
25320;DHT22;13256;49.012;8.610;2023-03-17T03:28:31;5.10;99.90
25320;DHT22;13256;49.012;8.610;2023-03-17T03:30:58;5.10;99.90
25320;DHT22;13256;49.012;8.610;2023-03-17T03:33:26;5.10;99.90
25320;DHT22;13256;49.012;8.610;2023-03-17T03:35:55;5.10;99.90
25320;DHT22;13256;49.012;8.610;2023-03-17T03:38:24;5.10;99.90
25320;DHT22;13256;49.012;8.610;2023-03-17T03:40:54;5.00;99.90
25320;DHT22;13256;49.012;8.610;2023-03-17T03:43:21;5.00;99.90
25320;DHT22;13256;49.012;8.610;2023-03-17T03:45:52;4.90;99.90
25320;DHT22;13256;49.012;8.610;2023-03-17T03:48:20;4.90;99.90
25320;DHT22;13256;49.012;8.610;2023-03-17T03:50:59;4.90;99.90
25320;DHT22;13256;49.012;8.610;2023-03-17T03:53:30;4.80;99.90
25320;DHT22;13256;49.012;8.610;2023-03-17T03:56:00;4.70;99.90
25320;DHT22;13256;49.012;8.610;2023-03-17T03:58:32;4.60;99.90
25320;DHT22;13256;49.012;8.610;2023-03-17T04:01:07;4.50;99.90
25320;DHT22;13256;49.012;8.610;2023-03-17T04:03:38;4.40;99.90
25320;DHT22;13256;49.012;8.610;2023-03-17T04:06:05;4.30;99.90
25320;DHT22;13256;49.012;8.610;2023-03-17T04:08:32;4.20;99.90
25320;DHT22;13256;49.012;8.610;2023-03-17T04:11:07;4.20;99.90
25320;DHT22;13256;49.012;8.610;2023-03-17T04:13:34;4.10;99.90
25320;DHT22;13256;49.012;8.610;2023-03-17T04:16:01;4.10;99.90
25320;DHT22;13256;49.012;8.610;2023-03-17T04:18:34;4.10;99.90
25320;DHT22;13256;49.012;8.610;2023-03-17T04:21:01;4.00;99.90
25320;DHT22;13256;49.012;8.610;2023-03-17T04:23:28;3.90;99.90
25320;DHT22;13256;49.012;8.610;2023-03-17T04:25:56;3.80;99.90
25320;DHT22;13256;49.012;8.610;2023-03-17T04:28:23;3.80;99.90
25320;DHT22;13256;49.012;8.610;2023-03-17T04:30:50;3.70;99.90
25320;DHT22;13256;49.012;8.610;2023-03-17T04:33:20;3.70;99.90
25320;DHT22;13256;49.012;8.610;2023-03-17T04:35:51;3.70;99.90
25320;DHT22;13256;49.012;8.610;2023-03-17T04:38:17;3.60;99.90
25320;DHT22;13256;49.012;8.610;2023-03-17T04:40:52;3.60;99.90
25320;DHT22;13256;49.012;8.610;2023-03-17T04:43:19;3.50;99.90
25320;DHT22;13256;49.012;8.610;2023-03-17T04:46:12;3.50;99.90
25320;DHT22;13256;49.012;8.610;2023-03-17T04:48:44;3.40;99.90
25320;DHT22;13256;49.012;8.610;2023-03-17T04:51:13;3.30;99.90
25320;DHT22;13256;49.012;8.610;2023-03-17T04:53:45;3.20;99.90
25320;DHT22;13256;49.012;8.610;2023-03-17T04:56:15;3.20;99.90
25320;DHT22;13256;49.012;8.610;2023-03-17T04:58:42;3.10;99.90
25320;DHT22;13256;49.012;8.610;2023-03-17T05:01:12;3.00;99.90
25320;DHT22;13256;49.012;8.610;2023-03-17T05:03:43;3.00;99.90
25320;DHT22;13256;49.012;8.610;2023-03-17T05:06:10;2.90;99.90
25320;DHT22;13256;49.012;8.610;2023-03-17T05:08:37;2.90;99.90
25320;DHT22;13256;49.012;8.610;2023-03-17T05:11:05;2.90;99.90
25320;DHT22;13256;49.012;8.610;2023-03-17T05:13:34;2.90;99.90
25320;DHT22;13256;49.012;8.610;2023-03-17T05:16:01;3.00;99.90
25320;DHT22;13256;49.012;8.610;2023-03-17T05:18:31;2.90;99.90
25320;DHT22;13256;49.012;8.610;2023-03-17T05:21:00;3.00;99.90
25320;DHT22;13256;49.012;8.610;2023-03-17T05:23:52;2.90;99.90
25320;DHT22;13256;49.012;8.610;2023-03-17T05:26:25;2.90;99.90
25320;DHT22;13256;49.012;8.610;2023-03-17T05:28:54;2.90;99.90
25320;DHT22;13256;49.012;8.610;2023-03-17T05:31:21;2.80;99.90
25320;DHT22;13256;49.012;8.610;2023-03-17T05:33:49;2.80;99.90
25320;DHT22;13256;49.012;8.610;2023-03-17T05:36:16;2.70;99.90
25320;DHT22;13256;49.012;8.610;2023-03-17T05:38:43;2.70;99.90
25320;DHT22;13256;49.012;8.610;2023-03-17T05:41:10;2.70;99.90
25320;DHT22;13256;49.012;8.610;2023-03-17T05:43:37;2.60;99.90
25320;DHT22;13256;49.012;8.610;2023-03-17T05:46:09;2.60;99.90
25320;DHT22;13256;49.012;8.610;2023-03-17T05:48:36;2.60;99.90
25320;DHT22;13256;49.012;8.610;2023-03-17T05:51:05;2.60;99.90
25320;DHT22;13256;49.012;8.610;2023-03-17T05:53:32;2.70;99.90
25320;DHT22;13256;49.012;8.610;2023-03-17T05:56:00;2.70;99.90
25320;DHT22;13256;49.012;8.610;2023-03-17T05:58:27;2.80;99.90
25320;DHT22;13256;49.012;8.610;2023-03-17T06:00:54;2.80;99.90
25320;DHT22;13256;49.012;8.610;2023-03-17T06:03:22;2.90;99.90
25320;DHT22;13256;49.012;8.610;2023-03-17T06:05:50;2.90;99.90
25320;DHT22;13256;49.012;8.610;2023-03-17T06:13:51;2.90;99.90
25320;DHT22;13256;49.012;8.610;2023-03-17T06:18:56;2.90;99.90
25320;DHT22;13256;49.012;8.610;2023-03-17T06:21:23;2.90;99.90
25320;DHT22;13256;49.012;8.610;2023-03-17T06:23:49;2.90;99.90
25320;DHT22;13256;49.012;8.610;2023-03-17T06:26:16;2.80;99.90
25320;DHT22;13256;49.012;8.610;2023-03-17T06:28:44;2.80;99.90
25320;DHT22;13256;49.012;8.610;2023-03-17T06:31:15;2.80;99.90
25320;DHT22;13256;49.012;8.610;2023-03-17T06:33:49;2.80;99.90
25320;DHT22;13256;49.012;8.610;2023-03-17T06:36:18;2.80;99.90
25320;DHT22;13256;49.012;8.610;2023-03-17T06:38:45;2.80;99.90
25320;DHT22;13256;49.012;8.610;2023-03-17T06:41:12;2.80;99.90
25320;DHT22;13256;49.012;8.610;2023-03-17T06:43:44;2.90;99.90
25320;DHT22;13256;49.012;8.610;2023-03-17T06:46:14;2.90;99.90
25320;DHT22;13256;49.012;8.610;2023-03-17T06:48:41;3.00;99.90
25320;DHT22;13256;49.012;8.610;2023-03-17T06:51:11;3.10;99.90
25320;DHT22;13256;49.012;8.610;2023-03-17T06:53:38;3.20;99.90
25320;DHT22;13256;49.012;8.610;2023-03-17T06:56:05;3.20;99.90
25320;DHT22;13256;49.012;8.610;2023-03-17T06:58:32;3.30;99.90
25320;DHT22;13256;49.012;8.610;2023-03-17T07:00:58;3.40;99.90
25320;DHT22;13256;49.012;8.610;2023-03-17T07:03:26;3.50;99.90
25320;DHT22;13256;49.012;8.610;2023-03-17T07:05:55;3.60;99.90
25320;DHT22;13256;49.012;8.610;2023-03-17T07:08:25;3.70;99.90
25320;DHT22;13256;49.012;8.610;2023-03-17T07:10:55;3.80;99.90
25320;DHT22;13256;49.012;8.610;2023-03-17T07:13:25;3.90;99.90
25320;DHT22;13256;49.012;8.610;2023-03-17T07:15:52;4.00;99.90
25320;DHT22;13256;49.012;8.610;2023-03-17T07:18:29;4.10;99.90
25320;DHT22;13256;49.012;8.610;2023-03-17T07:20:59;4.30;99.90
25320;DHT22;13256;49.012;8.610;2023-03-17T07:23:28;4.40;99.90
25320;DHT22;13256;49.012;8.610;2023-03-17T07:25:56;4.50;99.90
25320;DHT22;13256;49.012;8.610;2023-03-17T07:28:25;4.70;99.90
25320;DHT22;13256;49.012;8.610;2023-03-17T07:30:52;4.80;99.90
25320;DHT22;13256;49.012;8.610;2023-03-17T07:33:19;4.90;99.90
25320;DHT22;13256;49.012;8.610;2023-03-17T07:35:52;5.00;99.90
25320;DHT22;13256;49.012;8.610;2023-03-17T07:38:23;5.10;99.90
25320;DHT22;13256;49.012;8.610;2023-03-17T07:40:52;5.20;99.90
25320;DHT22;13256;49.012;8.610;2023-03-17T07:43:19;5.30;99.90
25320;DHT22;13256;49.012;8.610;2023-03-17T07:56:27;6.20;99.90
25320;DHT22;13256;49.012;8.610;2023-03-17T07:58:57;6.50;99.90
25320;DHT22;13256;49.012;8.610;2023-03-17T08:01:27;6.70;99.90
25320;DHT22;13256;49.012;8.610;2023-03-17T08:03:59;7.00;99.90
25320;DHT22;13256;49.012;8.610;2023-03-17T08:06:28;7.20;99.90
25320;DHT22;13256;49.012;8.610;2023-03-17T08:08:55;7.40;99.90
25320;DHT22;13256;49.012;8.610;2023-03-17T08:11:24;7.70;99.90
25320;DHT22;13256;49.012;8.610;2023-03-17T08:13:55;7.90;99.90
25320;DHT22;13256;49.012;8.610;2023-03-17T08:16:22;8.20;99.90
25320;DHT22;13256;49.012;8.610;2023-03-17T08:18:50;8.40;99.90
25320;DHT22;13256;49.012;8.610;2023-03-17T08:21:19;8.50;99.90
25320;DHT22;13256;49.012;8.610;2023-03-17T08:23:48;8.60;99.90
25320;DHT22;13256;49.012;8.610;2023-03-17T08:26:17;8.70;99.90
25320;DHT22;13256;49.012;8.610;2023-03-17T08:28:44;8.80;99.90
25320;DHT22;13256;49.012;8.610;2023-03-17T08:31:19;9.00;99.90
25320;DHT22;13256;49.012;8.610;2023-03-17T08:33:50;9.30;99.90
25320;DHT22;13256;49.012;8.610;2023-03-17T08:36:18;9.60;99.90
25320;DHT22;13256;49.012;8.610;2023-03-17T08:38:46;9.80;99.90
25320;DHT22;13256;49.012;8.610;2023-03-17T08:41:16;10.00;99.90
25320;DHT22;13256;49.012;8.610;2023-03-17T08:43:44;10.30;99.90
25320;DHT22;13256;49.012;8.610;2023-03-17T08:46:27;10.50;99.90
25320;DHT22;13256;49.012;8.610;2023-03-17T08:48:59;10.80;99.90
25320;DHT22;13256;49.012;8.610;2023-03-17T08:51:35;11.10;99.90
25320;DHT22;13256;49.012;8.610;2023-03-17T08:54:03;11.30;99.90
25320;DHT22;13256;49.012;8.610;2023-03-17T08:56:31;11.70;99.90
25320;DHT22;13256;49.012;8.610;2023-03-17T08:58:58;11.90;99.90
25320;DHT22;13256;49.012;8.610;2023-03-17T09:01:30;12.10;99.90
25320;DHT22;13256;49.012;8.610;2023-03-17T09:03:58;12.40;99.90
25320;DHT22;13256;49.012;8.610;2023-03-17T09:06:28;12.70;99.90
25320;DHT22;13256;49.012;8.610;2023-03-17T09:08:57;12.90;99.90
25320;DHT22;13256;49.012;8.610;2023-03-17T09:11:26;13.20;99.90
25320;DHT22;13256;49.012;8.610;2023-03-17T09:13:55;13.30;99.90
25320;DHT22;13256;49.012;8.610;2023-03-17T09:16:25;13.50;99.90
25320;DHT22;13256;49.012;8.610;2023-03-17T09:18:56;13.60;99.90
25320;DHT22;13256;49.012;8.610;2023-03-17T09:21:22;13.80;99.90
25320;DHT22;13256;49.012;8.610;2023-03-17T09:23:49;13.80;99.90
25320;DHT22;13256;49.012;8.610;2023-03-17T09:26:18;13.80;99.90
25320;DHT22;13256;49.012;8.610;2023-03-17T09:28:45;13.80;99.90
25320;DHT22;13256;49.012;8.610;2023-03-17T09:31:18;13.90;99.90
25320;DHT22;13256;49.012;8.610;2023-03-17T09:33:45;14.10;99.90
25320;DHT22;13256;49.012;8.610;2023-03-17T09:36:12;14.30;99.40
25320;DHT22;13256;49.012;8.610;2023-03-17T09:38:41;14.60;98.20
25320;DHT22;13256;49.012;8.610;2023-03-17T09:46:45;15.10;97.10
25320;DHT22;13256;49.012;8.610;2023-03-17T09:49:19;15.30;97.60
25320;DHT22;13256;49.012;8.610;2023-03-17T09:51:51;15.60;95.50
25320;DHT22;13256;49.012;8.610;2023-03-17T09:54:32;15.60;94.10
25320;DHT22;13256;49.012;8.610;2023-03-17T09:57:08;15.50;93.10
25320;DHT22;13256;49.012;8.610;2023-03-17T09:59:47;15.60;95.10
25320;DHT22;13256;49.012;8.610;2023-03-17T10:02:24;15.80;93.30
25320;DHT22;13256;49.012;8.610;2023-03-17T10:04:53;16.20;91.30
25320;DHT22;13256;49.012;8.610;2023-03-17T10:07:35;16.50;91.90
25320;DHT22;13256;49.012;8.610;2023-03-17T10:10:18;16.80;91.00
25320;DHT22;13256;49.012;8.610;2023-03-17T10:17:46;17.10;87.00
25320;DHT22;13256;49.012;8.610;2023-03-17T10:20:16;17.10;88.00
25320;DHT22;13256;49.012;8.610;2023-03-17T10:22:44;16.90;90.30
25320;DHT22;13256;49.012;8.610;2023-03-17T10:25:19;16.90;89.10
25320;DHT22;13256;49.012;8.610;2023-03-17T10:27:55;16.80;90.50
25320;DHT22;13256;49.012;8.610;2023-03-17T10:30:23;16.80;88.60
25320;DHT22;13256;49.012;8.610;2023-03-17T10:32:55;16.80;89.10
25320;DHT22;13256;49.012;8.610;2023-03-17T10:35:24;17.00;89.00
25320;DHT22;13256;49.012;8.610;2023-03-17T10:38:17;17.10;89.30
25320;DHT22;13256;49.012;8.610;2023-03-17T10:40:55;17.20;87.10
25320;DHT22;13256;49.012;8.610;2023-03-17T10:43:29;17.20;86.70
25320;DHT22;13256;49.012;8.610;2023-03-17T10:46:04;17.20;86.10
25320;DHT22;13256;49.012;8.610;2023-03-17T10:48:37;17.20;86.60
25320;DHT22;13256;49.012;8.610;2023-03-17T10:51:08;17.30;88.20
25320;DHT22;13256;49.012;8.610;2023-03-17T10:53:40;17.50;86.50
25320;DHT22;13256;49.012;8.610;2023-03-17T10:56:39;17.80;87.60
25320;DHT22;13256;49.012;8.610;2023-03-17T10:59:12;18.00;83.70
25320;DHT22;13256;49.012;8.610;2023-03-17T11:01:53;18.00;83.50
25320;DHT22;13256;49.012;8.610;2023-03-17T11:06:59;18.10;85.10
25320;DHT22;13256;49.012;8.610;2023-03-17T11:09:36;18.10;83.50
25320;DHT22;13256;49.012;8.610;2023-03-17T11:12:10;17.90;83.90
25320;DHT22;13256;49.012;8.610;2023-03-17T11:14:43;17.80;83.40
25320;DHT22;13256;49.012;8.610;2023-03-17T11:17:22;17.60;82.40
25320;DHT22;13256;49.012;8.610;2023-03-17T11:22:51;17.80;85.10
25320;DHT22;13256;49.012;8.610;2023-03-17T11:25:26;18.00;83.00
25320;DHT22;13256;49.012;8.610;2023-03-17T11:28:15;18.10;83.40
25320;DHT22;13256;49.012;8.610;2023-03-17T11:39:15;18.70;84.20
25320;DHT22;13256;49.012;8.610;2023-03-17T11:45:44;18.80;80.70
25320;DHT22;13256;49.012;8.610;2023-03-17T11:50:58;19.10;79.90
25320;DHT22;13256;49.012;8.610;2023-03-17T11:59:16;19.40;79.40
25320;DHT22;13256;49.012;8.610;2023-03-17T12:04:39;19.20;80.00
25320;DHT22;13256;49.012;8.610;2023-03-17T12:07:28;19.00;77.90
25320;DHT22;13256;49.012;8.610;2023-03-17T12:12:40;19.20;77.70
25320;DHT22;13256;49.012;8.610;2023-03-17T12:15:15;19.20;78.60
25320;DHT22;13256;49.012;8.610;2023-03-17T12:24:42;19.30;78.80
25320;DHT22;13256;49.012;8.610;2023-03-17T12:27:28;19.20;78.70
25320;DHT22;13256;49.012;8.610;2023-03-17T12:35:28;19.10;78.90
25320;DHT22;13256;49.012;8.610;2023-03-17T12:55:23;19.80;77.80
25320;DHT22;13256;49.012;8.610;2023-03-17T12:58:04;19.90;77.10
25320;DHT22;13256;49.012;8.610;2023-03-17T13:00:47;19.90;76.50
25320;DHT22;13256;49.012;8.610;2023-03-17T13:03:26;19.90;75.70
25320;DHT22;13256;49.012;8.610;2023-03-17T13:06:05;20.10;74.50
25320;DHT22;13256;49.012;8.610;2023-03-17T13:08:40;20.30;75.20
25320;DHT22;13256;49.012;8.610;2023-03-17T13:21:49;21.00;70.90
25320;DHT22;13256;49.012;8.610;2023-03-17T13:24:43;21.00;70.30
25320;DHT22;13256;49.012;8.610;2023-03-17T13:38:43;20.60;68.60
25320;DHT22;13256;49.012;8.610;2023-03-17T13:45:45;20.60;70.00
25320;DHT22;13256;49.012;8.610;2023-03-17T13:47:43;20.60;70.00
25320;DHT22;13256;49.012;8.610;2023-03-17T13:50:14;20.80;70.60
25320;DHT22;13256;49.012;8.610;2023-03-17T13:52:53;20.90;69.80
25320;DHT22;13256;49.012;8.610;2023-03-17T13:55:42;21.00;70.40
25320;DHT22;13256;49.012;8.610;2023-03-17T13:58:22;21.10;70.10
25320;DHT22;13256;49.012;8.610;2023-03-17T14:00:56;21.10;71.30
25320;DHT22;13256;49.012;8.610;2023-03-17T14:06:10;21.00;71.50
25320;DHT22;13256;49.012;8.610;2023-03-17T14:08:50;20.90;72.30
25320;DHT22;13256;49.012;8.610;2023-03-17T14:11:30;20.80;71.20
25320;DHT22;13256;49.012;8.610;2023-03-17T14:14:30;20.70;69.70
25320;DHT22;13256;49.012;8.610;2023-03-17T14:20:28;20.30;71.70
25320;DHT22;13256;49.012;8.610;2023-03-17T14:23:01;20.30;71.30
25320;DHT22;13256;49.012;8.610;2023-03-17T14:25:40;20.20;72.10
25320;DHT22;13256;49.012;8.610;2023-03-17T14:28:12;20.30;71.10
25320;DHT22;13256;49.012;8.610;2023-03-17T14:30:51;20.30;71.20
25320;DHT22;13256;49.012;8.610;2023-03-17T14:33:27;20.30;73.10
25320;DHT22;13256;49.012;8.610;2023-03-17T14:36:02;20.10;72.20
25320;DHT22;13256;49.012;8.610;2023-03-17T14:38:34;20.10;74.50
25320;DHT22;13256;49.012;8.610;2023-03-17T14:50:27;19.90;76.70
25320;DHT22;13256;49.012;8.610;2023-03-17T14:52:58;19.80;78.40
25320;DHT22;13256;49.012;8.610;2023-03-17T14:55:39;19.80;79.70
25320;DHT22;13256;49.012;8.610;2023-03-17T14:58:30;19.80;80.00
25320;DHT22;13256;49.012;8.610;2023-03-17T15:01:40;19.80;82.00
25320;DHT22;13256;49.012;8.610;2023-03-17T15:04:14;19.60;80.20
25320;DHT22;13256;49.012;8.610;2023-03-17T15:07:00;19.40;78.90
25320;DHT22;13256;49.012;8.610;2023-03-17T15:09:42;19.20;82.60
25320;DHT22;13256;49.012;8.610;2023-03-17T15:12:23;18.90;85.50
25320;DHT22;13256;49.012;8.610;2023-03-17T15:15:02;18.80;85.70
25320;DHT22;13256;49.012;8.610;2023-03-17T15:17:34;18.80;84.80
25320;DHT22;13256;49.012;8.610;2023-03-17T15:20:03;18.70;88.10
25320;DHT22;13256;49.012;8.610;2023-03-17T15:27:51;18.60;90.40
25320;DHT22;13256;49.012;8.610;2023-03-17T15:30:18;18.50;91.00
25320;DHT22;13256;49.012;8.610;2023-03-17T15:32:50;18.30;91.40
25320;DHT22;13256;49.012;8.610;2023-03-17T15:35:17;18.30;91.40
25320;DHT22;13256;49.012;8.610;2023-03-17T15:37:44;18.20;91.80
25320;DHT22;13256;49.012;8.610;2023-03-17T15:40:12;18.10;91.80
25320;DHT22;13256;49.012;8.610;2023-03-17T15:42:41;18.20;91.70
25320;DHT22;13256;49.012;8.610;2023-03-17T15:47:45;18.00;92.60
25320;DHT22;13256;49.012;8.610;2023-03-17T15:50:17;17.90;93.50
25320;DHT22;13256;49.012;8.610;2023-03-17T15:52:45;17.70;93.90
25320;DHT22;13256;49.012;8.610;2023-03-17T15:55:20;17.60;93.80
25320;DHT22;13256;49.012;8.610;2023-03-17T15:57:47;17.60;93.80
25320;DHT22;13256;49.012;8.610;2023-03-17T16:00:24;17.50;94.40
25320;DHT22;13256;49.012;8.610;2023-03-17T16:02:59;17.50;94.40
25320;DHT22;13256;49.012;8.610;2023-03-17T16:05:33;17.50;94.30
25320;DHT22;13256;49.012;8.610;2023-03-17T16:08:02;17.40;94.60
25320;DHT22;13256;49.012;8.610;2023-03-17T16:10:30;17.30;94.60
25320;DHT22;13256;49.012;8.610;2023-03-17T16:12:57;17.30;94.50
25320;DHT22;13256;49.012;8.610;2023-03-17T16:15:27;17.30;94.60
25320;DHT22;13256;49.012;8.610;2023-03-17T16:17:58;17.30;94.60
25320;DHT22;13256;49.012;8.610;2023-03-17T16:23:11;17.10;95.30
25320;DHT22;13256;49.012;8.610;2023-03-17T16:25:40;17.10;95.70
25320;DHT22;13256;49.012;8.610;2023-03-17T16:30:43;16.90;96.40
25320;DHT22;13256;49.012;8.610;2023-03-17T16:33:16;16.90;96.60
25320;DHT22;13256;49.012;8.610;2023-03-17T16:35:46;16.80;97.30
25320;DHT22;13256;49.012;8.610;2023-03-17T16:38:20;16.70;97.90
25320;DHT22;13256;49.012;8.610;2023-03-17T16:40:49;16.70;98.30
25320;DHT22;13256;49.012;8.610;2023-03-17T16:43:26;16.70;98.90
25320;DHT22;13256;49.012;8.610;2023-03-17T16:46:01;16.60;99.30
25320;DHT22;13256;49.012;8.610;2023-03-17T16:48:31;16.50;99.90
25320;DHT22;13256;49.012;8.610;2023-03-17T16:50:58;16.40;99.90
25320;DHT22;13256;49.012;8.610;2023-03-17T16:53:25;16.40;99.90
25320;DHT22;13256;49.012;8.610;2023-03-17T16:55:52;16.30;99.90
25320;DHT22;13256;49.012;8.610;2023-03-17T16:58:22;16.30;99.90
25320;DHT22;13256;49.012;8.610;2023-03-17T17:00:51;16.20;99.90
25320;DHT22;13256;49.012;8.610;2023-03-17T17:03:21;16.20;99.90
25320;DHT22;13256;49.012;8.610;2023-03-17T17:05:49;16.10;99.90
25320;DHT22;13256;49.012;8.610;2023-03-17T17:08:16;15.90;99.90
25320;DHT22;13256;49.012;8.610;2023-03-17T17:10:45;15.90;99.90
25320;DHT22;13256;49.012;8.610;2023-03-17T17:13:12;15.80;99.90
25320;DHT22;13256;49.012;8.610;2023-03-17T17:15:40;15.70;99.90
25320;DHT22;13256;49.012;8.610;2023-03-17T17:18:16;15.70;99.90
25320;DHT22;13256;49.012;8.610;2023-03-17T17:20:47;15.60;99.90
25320;DHT22;13256;49.012;8.610;2023-03-17T17:23:19;15.50;99.90
25320;DHT22;13256;49.012;8.610;2023-03-17T17:25:48;15.50;99.90
25320;DHT22;13256;49.012;8.610;2023-03-17T17:28:18;15.40;99.90
25320;DHT22;13256;49.012;8.610;2023-03-17T17:30:45;15.30;99.90
25320;DHT22;13256;49.012;8.610;2023-03-17T17:33:17;15.20;99.90
25320;DHT22;13256;49.012;8.610;2023-03-17T17:35:46;15.20;99.90
25320;DHT22;13256;49.012;8.610;2023-03-17T17:38:22;15.10;99.90
25320;DHT22;13256;49.012;8.610;2023-03-17T17:41:00;15.00;99.90
25320;DHT22;13256;49.012;8.610;2023-03-17T17:43:31;14.90;99.90
25320;DHT22;13256;49.012;8.610;2023-03-17T17:45:58;14.80;99.90
25320;DHT22;13256;49.012;8.610;2023-03-17T17:48:26;14.70;99.90
25320;DHT22;13256;49.012;8.610;2023-03-17T17:50:58;14.70;99.90
25320;DHT22;13256;49.012;8.610;2023-03-17T17:53:27;14.60;99.90
25320;DHT22;13256;49.012;8.610;2023-03-17T17:55:54;14.50;99.90
25320;DHT22;13256;49.012;8.610;2023-03-17T17:58:22;14.50;99.90
25320;DHT22;13256;49.012;8.610;2023-03-17T18:00:51;14.30;99.90
25320;DHT22;13256;49.012;8.610;2023-03-17T18:03:23;14.20;99.90
25320;DHT22;13256;49.012;8.610;2023-03-17T18:05:52;14.10;99.90
25320;DHT22;13256;49.012;8.610;2023-03-17T18:08:19;14.00;99.90
25320;DHT22;13256;49.012;8.610;2023-03-17T18:10:46;13.90;99.90
25320;DHT22;13256;49.012;8.610;2023-03-17T18:13:13;13.80;99.90
25320;DHT22;13256;49.012;8.610;2023-03-17T18:15:39;13.60;99.90
25320;DHT22;13256;49.012;8.610;2023-03-17T18:18:08;13.50;99.90
25320;DHT22;13256;49.012;8.610;2023-03-17T18:20:37;13.40;99.90
25320;DHT22;13256;49.012;8.610;2023-03-17T18:23:07;13.30;99.90
25320;DHT22;13256;49.012;8.610;2023-03-17T18:25:37;13.30;99.90
25320;DHT22;13256;49.012;8.610;2023-03-17T18:28:06;13.20;99.90
25320;DHT22;13256;49.012;8.610;2023-03-17T18:30:37;13.20;99.90
25320;DHT22;13256;49.012;8.610;2023-03-17T18:35:58;13.00;99.90
25320;DHT22;13256;49.012;8.610;2023-03-17T18:38:27;12.80;99.90